Time;durP1;ratioP1;P1;durP2;ratioP2;P2;SDS_P1;SDS_P2;PMS_P1;PMS_P2;Temp;Humidity;BMP_temperature;BMP_pressure;BME280_temperature;BME280_humidity;BME280_pressure;Samples;Min_cycle;Max_cycle;Signal;HPM_P1;HPM_P2
2023/04/14 00:00:06;;;;;;;16.90;9.05;;;;;;;6.40;79.45;100272.41;7396621;19;20019;-70
2023/04/14 00:02:39;;;;;;;14.60;8.27;;;;;;;6.39;79.46;100269.84;7397202;19;20011;-70
2023/04/14 00:05:09;;;;;;;11.98;8.55;;;;;;;6.36;79.29;100263.75;7396619;19;20014;-70
2023/04/14 00:07:38;;;;;;;12.43;7.80;;;;;;;6.35;79.41;100272.47;7396367;19;20011;-70
2023/04/14 00:10:07;;;;;;;13.65;7.38;;;;;;;6.34;79.51;100275.97;7396695;19;20014;-70
2023/04/14 00:12:36;;;;;;;15.48;7.82;;;;;;;6.25;79.30;100270.00;7398924;19;20014;-72
2023/04/14 00:15:05;;;;;;;12.75;6.78;;;;;;;6.30;79.63;100282.06;7397659;19;20506;-72
2023/04/14 00:17:33;;;;;;;9.27;6.68;;;;;;;6.29;79.56;100290.78;7397380;19;20038;-72
2023/04/14 00:20:04;;;;;;;9.38;6.13;;;;;;;6.25;79.60;100289.09;7397224;19;20019;-73
2023/04/14 00:22:33;;;;;;;12.50;7.35;;;;;;;6.21;79.53;100281.34;7398916;19;20019;-69
2023/04/14 00:25:01;;;;;;;7.38;6.38;;;;;;;6.18;79.43;100285.69;7398374;19;20031;-69
2023/04/14 00:27:30;;;;;;;9.70;6.55;;;;;;;6.16;79.57;100278.78;7419292;19;20025;-70
2023/04/14 00:29:58;;;;;;;10.25;5.72;;;;;;;6.11;79.71;100276.22;7419162;19;20019;-69
2023/04/14 00:32:28;;;;;;;9.98;5.63;;;;;;;6.09;79.68;100277.09;7419248;19;20023;-69
2023/04/14 00:34:59;;;;;;;7.32;4.78;;;;;;;6.06;79.72;100279.75;7419860;19;20011;-69
2023/04/14 00:37:30;;;;;;;7.50;5.25;;;;;;;6.03;79.71;100280.66;7420995;19;20505;-69
2023/04/14 00:39:58;;;;;;;5.15;3.75;;;;;;;6.00;79.64;100281.56;7421994;19;20015;-69
2023/04/14 00:42:27;;;;;;;7.90;4.60;;;;;;;5.98;79.71;100272.88;7419517;19;20047;-69
2023/04/14 00:44:55;;;;;;;8.20;4.32;;;;;;;5.96;79.88;100271.13;7407209;19;20028;-69
2023/04/14 00:47:24;;;;;;;8.07;4.55;;;;;;;5.95;79.99;100272.88;7402235;19;20032;-69
2023/04/14 00:49:53;;;;;;;5.60;3.95;;;;;;;5.95;79.99;100277.22;7405549;19;20039;-69
2023/04/14 00:52:24;;;;;;;7.03;4.30;;;;;;;5.93;79.80;100282.44;7410126;19;20015;-70
2023/04/14 00:54:55;;;;;;;4.15;3.38;;;;;;;5.92;80.09;100272.91;7408185;19;20477;-70
2023/04/14 00:57:24;;;;;;;4.88;3.20;;;;;;;5.91;79.87;100270.31;7406593;19;20014;-70
2023/04/14 00:59:52;;;;;;;5.28;3.40;;;;;;;5.87;79.95;100269.50;7410662;19;20019;-70
2023/04/14 01:02:21;;;;;;;3.63;3.25;;;;;;;5.85;79.94;100272.13;7396578;19;20022;-70
2023/04/14 01:04:49;;;;;;;6.95;3.63;;;;;;;5.84;80.02;100275.59;7392490;19;20022;-69
2023/04/14 01:07:18;;;;;;;4.32;3.50;;;;;;;5.83;80.13;100271.25;7398972;19;20014;-69
2023/04/14 01:09:46;;;;;;;6.40;4.22;;;;;;;5.82;80.30;100277.34;7398705;19;20485;-69
2023/04/14 01:12:40;;;;;;;10.93;3.80;;;;;;;5.83;80.22;100275.63;7398779;19;20427;-69
2023/04/14 01:15:14;;;;;;;5.07;3.53;;;;;;;5.82;80.49;100272.13;7398710;19;20089;-69
2023/04/14 01:17:51;;;;;;;8.13;3.97;;;;;;;5.82;80.31;100273.88;7400907;19;20485;-71
2023/04/14 01:20:28;;;;;;;5.60;4.00;;;;;;;5.81;80.34;100274.75;7401105;19;20377;-69
2023/04/14 01:23:01;;;;;;;7.10;3.65;;;;;;;5.81;80.56;100275.63;7401521;19;20018;-69
2023/04/14 01:26:13;;;;;;;4.25;3.80;;;;;;;5.81;80.62;100274.75;7399084;19;20019;-69
2023/04/14 01:28:58;;;;;;;6.05;4.20;;;;;;;5.80;80.42;100283.44;7401672;19;20019;-69
2023/04/14 01:31:32;;;;;;;9.52;4.60;;;;;;;5.80;80.68;100280.81;7401578;19;20086;-69
2023/04/14 01:34:21;;;;;;;4.68;3.95;;;;;;;5.78;80.83;100275.66;7398618;19;20023;-69
2023/04/14 01:36:56;;;;;;;7.38;5.18;;;;;;;5.77;80.75;100278.28;7398590;19;20039;-69
2023/04/14 01:39:29;;;;;;;8.75;4.75;;;;;;;5.76;80.93;100277.38;7398480;19;20035;-69
2023/04/14 01:42:00;;;;;;;7.53;4.55;;;;;;;5.75;80.98;100275.69;7398184;19;20022;-69
2023/04/14 01:44:32;;;;;;;4.97;4.00;;;;;;;5.75;80.88;100283.50;7399000;19;20014;-69
2023/04/14 01:47:07;;;;;;;7.65;4.43;;;;;;;5.75;81.14;100283.50;7398080;19;20041;-69
2023/04/14 01:49:39;;;;;;;6.50;4.35;;;;;;;5.76;81.19;100273.94;7397807;19;20022;-69
2023/04/14 01:52:11;;;;;;;6.22;4.35;;;;;;;5.75;81.34;100269.59;7398595;19;20022;-70
2023/04/14 01:54:42;;;;;;;9.40;4.97;;;;;;;5.74;81.24;100270.47;7397824;19;20018;-69
2023/04/14 01:57:14;;;;;;;7.75;4.80;;;;;;;5.74;81.61;100276.56;7398284;19;20018;-69
2023/04/14 01:59:43;;;;;;;8.73;4.70;;;;;;;5.75;81.71;100277.41;7400796;19;20029;-69
2023/04/14 02:02:17;;;;;;;4.63;4.20;;;;;;;5.74;81.51;100279.16;7397914;19;20034;-69
2023/04/14 02:04:48;;;;;;;7.57;4.32;;;;;;;5.75;81.96;100285.22;7398187;19;20081;-69
2023/04/14 02:07:20;;;;;;;4.68;3.67;;;;;;;5.75;81.78;100285.22;7399968;19;20017;-69
2023/04/14 02:09:51;;;;;;;8.45;4.65;;;;;;;5.73;81.79;100282.63;7409607;19;20018;-69
2023/04/14 02:12:21;;;;;;;6.30;4.05;;;;;;;5.73;81.83;100289.59;7423779;19;20026;-69
2023/04/14 02:14:53;;;;;;;6.65;3.83;;;;;;;5.73;82.10;100289.59;7421970;19;20021;-69
2023/04/14 02:17:25;;;;;;;5.30;4.05;;;;;;;5.73;81.98;100289.59;7415854;19;20019;-69
2023/04/14 02:19:55;;;;;;;7.25;3.90;;;;;;;5.73;82.20;100298.25;7397504;19;20010;-69
2023/04/14 02:22:23;;;;;;;5.57;3.97;;;;;;;5.72;82.00;100296.53;7397406;19;20036;-69
2023/04/14 02:24:54;;;;;;;5.35;3.88;;;;;;;5.71;82.21;100294.78;7396696;19;20448;-69
2023/04/14 02:27:36;;;;;;;3.92;3.45;;;;;;;5.73;82.29;100292.19;7396618;19;20542;-69
2023/04/14 02:30:12;;;;;;;5.63;3.78;;;;;;;5.71;82.15;100290.47;7397240;19;20022;-69
2023/04/14 02:32:49;;;;;;;6.53;4.22;;;;;;;5.72;82.13;100296.53;7397635;19;20026;-68
2023/04/14 02:35:25;;;;;;;8.32;4.50;;;;;;;5.70;82.31;100295.69;7399012;19;20036;-69
2023/04/14 02:37:57;;;;;;;6.10;4.20;;;;;;;5.68;82.33;100290.47;7396656;19;20011;-69
2023/04/14 02:40:32;;;;;;;5.97;3.60;;;;;;;5.68;82.34;100293.09;7400356;19;20023;-69
2023/04/14 02:43:06;;;;;;;4.88;3.65;;;;;;;5.68;82.40;100295.69;7399006;19;20363;-69
2023/04/14 02:45:36;;;;;;;6.70;3.75;;;;;;;5.67;82.54;100288.78;7399732;19;20431;-69
2023/04/14 02:48:13;;;;;;;5.45;3.50;;;;;;;5.68;82.52;100292.22;7397953;19;20078;-69
2023/04/14 02:50:52;;;;;;;4.25;3.22;;;;;;;5.67;82.59;100295.69;7397239;19;20039;-69
2023/04/14 02:53:23;;;;;;;4.40;3.17;;;;;;;5.65;82.59;100293.13;7395829;19;20074;-69
2023/04/14 02:55:53;;;;;;;4.72;3.55;;;;;;;5.66;82.62;100297.47;7396038;19;20014;-69
2023/04/14 02:58:22;;;;;;;6.63;3.42;;;;;;;5.57;82.77;100279.28;7398086;19;20049;-69
2023/04/14 03:00:52;;;;;;;4.32;3.45;;;;;;;5.67;82.74;100288.78;7396125;19;20022;-69
2023/04/14 03:03:24;;;;;;;5.85;4.07;;;;;;;5.67;82.79;100288.78;7395916;19;20019;-69
2023/04/14 03:05:52;;;;;;;6.05;3.72;;;;;;;5.68;83.05;100287.03;7397195;19;20035;-74
2023/04/14 03:08:21;;;;;;;3.72;3.00;;;;;;;5.69;82.88;100279.19;7396443;19;20022;-70
2023/04/14 03:10:51;;;;;;;6.03;3.80;;;;;;;5.69;83.08;100275.75;7395752;19;20363;-70
2023/04/14 03:13:21;;;;;;;6.25;4.03;;;;;;;5.71;82.94;100280.06;7395689;19;20489;-71
2023/04/14 03:15:51;;;;;;;6.88;3.88;;;;;;;5.72;83.22;100278.31;7396451;19;20486;-69
2023/04/14 03:18:23;;;;;;;4.50;4.10;;;;;;;5.73;83.10;100273.97;7396618;19;20006;-69
2023/04/14 03:20:54;;;;;;;10.80;4.72;;;;;;;5.77;83.32;100267.84;7396556;19;20066;-69
2023/04/14 03:23:26;;;;;;;6.75;4.15;;;;;;;5.78;83.54;100267.84;7396127;19;20504;-69
2023/04/14 03:25:56;;;;;;;7.30;4.55;;;;;;;5.81;83.63;100261.72;7396769;19;20074;-69
2023/04/14 03:28:29;;;;;;;9.00;5.13;;;;;;;5.85;83.65;100268.63;7393745;19;20014;-68
2023/04/14 03:31:00;;;;;;;7.28;4.60;;;;;;;5.88;83.60;100268.63;7395789;19;20360;-68
2023/04/14 03:33:33;;;;;;;8.75;4.47;;;;;;;5.90;83.88;100261.63;7396367;19;20098;-69
2023/04/14 03:36:02;;;;;;;6.30;4.47;;;;;;;5.90;83.93;100261.63;7396603;19;20018;-69
2023/04/14 03:38:33;;;;;;;10.32;5.28;;;;;;;5.88;83.81;100266.00;7397779;19;20019;-73
2023/04/14 03:41:04;;;;;;;8.35;4.93;;;;;;;5.90;83.90;100264.22;7399633;19;20018;-72
2023/04/14 03:43:34;;;;;;;6.90;5.90;;;;;;;5.91;83.95;100270.31;7400891;19;20372;-72
2023/04/14 03:46:04;;;;;;;8.18;4.70;;;;;;;5.93;83.81;100264.22;7397064;19;20014;-73
2023/04/14 03:48:41;;;;;;;7.00;4.78;;;;;;;5.88;84.02;100260.81;7397466;19;20035;-73
2023/04/14 03:51:13;;;;;;;8.93;5.10;;;;;;;5.96;83.94;100271.13;7397719;19;20029;-71
2023/04/14 03:53:44;;;;;;;6.55;4.38;;;;;;;5.96;83.94;100273.75;7395743;19;20070;-73
2023/04/14 03:56:14;;;;;;;7.18;4.72;;;;;;;5.97;83.76;100272.88;7396489;19;20078;-70
2023/04/14 03:58:46;;;;;;;5.47;4.78;;;;;;;5.97;83.77;100273.72;7397626;19;20011;-70
2023/04/14 04:01:15;;;;;;;7.90;5.13;;;;;;;6.00;83.99;100270.25;7396980;19;20018;-69
2023/04/14 04:03:47;;;;;;;6.65;4.88;;;;;;;6.00;84.06;100270.25;7397140;19;20025;-69
2023/04/14 04:06:16;;;;;;;6.10;4.18;;;;;;;6.00;84.07;100263.31;7396723;19;20015;-68
2023/04/14 04:08:48;;;;;;;6.68;4.45;;;;;;;6.01;83.90;100272.84;7395982;19;20675;-69
2023/04/14 04:11:19;;;;;;;8.48;4.75;;;;;;;6.01;84.07;100271.97;7398198;19;20021;-69
2023/04/14 04:13:50;;;;;;;8.05;5.00;;;;;;;5.99;84.05;100269.41;7396925;19;20488;-69
2023/04/14 04:16:21;;;;;;;7.72;4.55;;;;;;;5.97;84.02;100265.91;7396588;19;20025;-69
2023/04/14 04:18:52;;;;;;;6.05;4.40;;;;;;;5.93;84.17;100264.22;7395612;19;20481;-67
2023/04/14 04:21:21;;;;;;;10.65;4.80;;;;;;;6.00;84.25;100275.47;7395963;19;20015;-70
2023/04/14 04:23:56;;;;;;;5.60;4.68;;;;;;;5.98;84.25;100262.47;7395777;19;20032;-71
2023/04/14 04:26:26;;;;;;;7.47;4.72;;;;;;;5.91;84.30;100259.91;7396125;19;20017;-69
2023/04/14 04:28:56;;;;;;;6.22;4.63;;;;;;;5.99;84.24;100264.19;7396748;19;20093;-70
2023/04/14 04:31:26;;;;;;;6.93;5.18;;;;;;;6.01;84.35;100269.38;7395264;19;20018;-70
2023/04/14 04:33:58;;;;;;;10.55;5.25;;;;;;;5.91;84.19;100252.94;7394925;19;20082;-70
2023/04/14 04:36:27;;;;;;;6.40;4.68;;;;;;;6.00;84.40;100273.75;7395194;19;20022;-71
2023/04/14 04:39:03;;;;;;;8.88;5.32;;;;;;;5.99;84.21;100272.00;7396703;19;20021;-70
2023/04/14 04:41:32;;;;;;;6.57;4.95;;;;;;;5.99;84.39;100276.34;7400578;19;20513;-70
2023/04/14 04:44:00;;;;;;;7.05;5.32;;;;;;;5.99;84.51;100279.81;7400894;19;20041;-71
2023/04/14 04:46:45;;;;;;;10.50;4.72;;;;;;;6.00;84.43;100281.56;7400805;19;20496;-70
2023/04/14 04:49:16;;;;;;;7.38;5.07;;;;;;;6.01;84.50;100288.47;7404107;19;20025;-72
2023/04/14 04:51:45;;;;;;;8.00;5.70;;;;;;;6.01;84.58;100288.47;7401108;19;20098;-73
2023/04/14 04:54:16;;;;;;;6.57;4.85;;;;;;;6.03;84.65;100291.06;7400439;19;20019;-71
2023/04/14 04:56:45;;;;;;;7.63;4.90;;;;;;;6.03;84.56;100285.84;7399971;19;20007;-70
2023/04/14 04:59:13;;;;;;;5.88;4.82;;;;;;;6.05;84.63;100289.28;7400598;19;20011;-69
2023/04/14 05:01:42;;;;;;;10.85;5.65;;;;;;;6.09;84.73;100300.53;7402885;19;20021;-70
2023/04/14 05:04:11;;;;;;;7.75;5.25;;;;;;;6.11;84.90;100298.81;7400075;19;20088;-72
2023/04/14 05:06:42;;;;;;;9.43;5.63;;;;;;;6.12;85.01;100295.31;7403541;19;20074;-70
2023/04/14 05:09:10;;;;;;;8.35;5.85;;;;;;;6.14;85.13;100298.75;7401053;19;20015;-68
2023/04/14 05:11:39;;;;;;;9.93;5.93;;;;;;;6.13;85.16;100292.69;7403243;19;20063;-70
2023/04/14 05:14:07;;;;;;;9.98;6.55;;;;;;;6.18;85.16;100288.28;7411237;19;20014;-70
2023/04/14 05:16:36;;;;;;;8.15;5.97;;;;;;;6.21;85.21;100292.59;7411774;19;20482;-69
2023/04/14 05:19:04;;;;;;;7.53;6.72;;;;;;;6.20;85.26;100283.06;7406041;19;20015;-71
2023/04/14 05:21:33;;;;;;;8.45;5.93;;;;;;;6.22;85.29;100286.53;7405116;19;20014;-70
2023/04/14 05:24:04;;;;;;;9.70;6.13;;;;;;;6.25;85.41;100288.22;7410678;19;20431;-72
2023/04/14 05:26:32;;;;;;;7.45;6.15;;;;;;;6.27;85.62;100292.53;7408131;19;20439;-71
2023/04/14 05:29:01;;;;;;;7.28;6.22;;;;;;;6.28;85.49;100294.28;7401298;19;20014;-70
2023/04/14 05:31:29;;;;;;;10.38;7.10;;;;;;;6.29;85.46;100293.41;7402795;19;20032;-70
2023/04/14 05:33:58;;;;;;;10.95;7.22;;;;;;;6.34;85.58;100296.81;7401335;19;20042;-71
2023/04/14 05:36:26;;;;;;;11.93;7.07;;;;;;;6.39;85.77;100298.50;7400533;19;20486;-71
2023/04/14 05:38:55;;;;;;;7.18;6.07;;;;;;;6.42;85.84;100296.72;7403392;19;20085;-71
2023/04/14 05:41:26;;;;;;;7.38;5.85;;;;;;;6.46;85.67;100302.75;7400183;19;20042;-69
2023/04/14 05:43:56;;;;;;;10.90;6.25;;;;;;;6.47;85.88;100296.66;7400055;19;20015;-72
2023/04/14 05:46:25;;;;;;;9.65;6.55;;;;;;;6.52;85.67;100298.31;7400995;19;20010;-72
2023/04/14 05:49:00;;;;;;;10.25;6.75;;;;;;;6.54;85.94;100295.69;7398477;19;20022;-72
2023/04/14 05:51:29;;;;;;;10.60;6.68;;;;;;;6.60;86.02;100294.78;7399560;19;20360;-71
2023/04/14 05:53:57;;;;;;;8.23;7.28;;;;;;;6.64;85.87;100293.84;7399472;19;20018;-71
2023/04/14 05:56:29;;;;;;;12.45;7.63;;;;;;;6.67;86.13;100286.84;7399442;19;20066;-72
2023/04/14 05:58:57;;;;;;;9.80;7.10;;;;;;;6.72;85.89;100293.75;7401082;19;20497;-71
2023/04/14 06:01:26;;;;;;;9.63;7.05;;;;;;;6.73;86.03;100301.53;7398336;19;20449;-70
2023/04/14 06:03:54;;;;;;;11.80;8.32;;;;;;;6.75;86.16;100296.28;7398140;19;20397;-70
2023/04/14 06:06:23;;;;;;;11.88;7.82;;;;;;;6.78;86.10;100294.50;7398666;19;20028;-71
2023/04/14 06:08:51;;;;;;;12.60;7.60;;;;;;;6.78;85.87;100291.91;7401277;19;20028;-71
2023/04/14 06:11:19;;;;;;;12.00;8.52;;;;;;;6.82;86.19;100298.81;7398389;19;20082;-72
2023/04/14 06:13:50;;;;;;;12.95;9.05;;;;;;;6.84;85.95;100299.66;7397841;19;20015;-70
2023/04/14 06:16:19;;;;;;;11.50;9.05;;;;;;;6.86;86.00;100304.84;7397518;19;20038;-72
2023/04/14 06:19:00;;;;;;;9.70;7.60;;;;;;;6.87;86.09;100300.50;7397716;19;20078;-69
2023/04/14 06:21:30;;;;;;;8.65;7.22;;;;;;;6.87;86.12;100305.72;7399546;19;20464;-70
2023/04/14 06:23:58;;;;;;;9.93;7.03;;;;;;;6.87;86.15;100308.31;7397890;19;20022;-69
2023/04/14 06:26:27;;;;;;;8.25;6.85;;;;;;;6.89;86.27;100304.81;7399196;19;20014;-70
2023/04/14 06:28:59;;;;;;;9.93;6.60;;;;;;;6.88;86.26;100308.31;7398655;19;20544;-70
2023/04/14 06:31:27;;;;;;;13.65;6.85;;;;;;;6.89;86.36;100310.03;7398479;19;20019;-69
2023/04/14 06:33:56;;;;;;;9.38;6.90;;;;;;;6.92;86.17;100315.19;7398519;19;20035;-70
2023/04/14 06:36:24;;;;;;;8.05;6.70;;;;;;;6.95;86.51;100312.56;7402008;19;20019;-69
2023/04/14 06:38:53;;;;;;;9.20;6.80;;;;;;;6.96;86.46;100322.13;7406192;19;20481;-70
2023/04/14 06:41:21;;;;;;;9.82;6.90;;;;;;;7.01;86.59;100329.84;7400594;19;20018;-70
2023/04/14 06:43:50;;;;;;;9.68;6.85;;;;;;;7.04;86.52;100328.94;7397593;19;20074;-68
2023/04/14 06:46:21;;;;;;;8.45;6.85;;;;;;;7.07;86.50;100324.56;7399834;19;20011;-70
2023/04/14 06:48:49;;;;;;;8.60;7.05;;;;;;;7.12;86.34;100321.88;7398049;19;20070;-70
2023/04/14 06:51:18;;;;;;;9.07;7.35;;;;;;;7.17;86.65;100314.84;7397570;19;20019;-70
2023/04/14 06:53:46;;;;;;;9.35;6.63;;;;;;;7.21;86.52;100320.91;7399301;19;20090;-67
2023/04/14 06:56:15;;;;;;;9.70;7.30;;;;;;;7.26;86.31;100308.66;7401872;19;20347;-68
2023/04/14 06:58:44;;;;;;;8.30;7.05;;;;;;;7.29;86.65;100314.69;7399659;19;20030;-68
2023/04/14 07:01:12;;;;;;;9.70;8.13;;;;;;;7.32;86.47;100308.56;7398862;19;20021;-70
2023/04/14 07:03:44;;;;;;;8.90;7.45;;;;;;;7.35;86.09;100303.28;7393931;19;20010;-71
2023/04/14 07:06:15;;;;;;;11.48;7.07;;;;;;;7.34;86.37;100301.53;7399874;19;20014;-72
2023/04/14 07:08:45;;;;;;;11.10;6.93;;;;;;;7.40;86.34;100298.00;7396715;19;20099;-72
2023/04/14 07:11:14;;;;;;;9.20;7.10;;;;;;;7.44;86.26;100302.28;7396324;19;20015;-71
2023/04/14 07:13:42;;;;;;;9.02;7.00;;;;;;;7.47;86.31;100304.84;7397635;19;20090;-71
2023/04/14 07:16:11;;;;;;;8.75;7.10;;;;;;;7.53;86.41;100302.09;7398533;19;20022;-69
2023/04/14 07:18:39;;;;;;;9.60;6.80;;;;;;;7.58;86.17;100299.44;7398730;19;20046;-71
2023/04/14 07:21:10;;;;;;;9.45;6.97;;;;;;;7.65;86.14;100298.44;7398596;19;20593;-71
2023/04/14 07:23:39;;;;;;;11.57;8.13;;;;;;;7.65;86.23;100307.13;7397942;19;20481;-70
2023/04/14 07:26:07;;;;;;;8.95;7.85;;;;;;;7.66;86.32;100310.63;7398248;19;20366;-70
2023/04/14 07:28:36;;;;;;;9.18;7.47;;;;;;;7.70;86.64;100316.66;7396665;19;20010;-70
2023/04/14 07:31:09;;;;;;;11.30;7.63;;;;;;;7.74;86.58;100315.72;7396943;19;20082;-71
2023/04/14 07:33:38;;;;;;;8.55;7.65;;;;;;;7.76;86.75;100313.91;7397228;19;20019;-70
2023/04/14 07:36:10;;;;;;;11.25;9.68;;;;;;;7.75;86.54;100302.63;7395377;19;20557;-72
2023/04/14 07:38:39;;;;;;;10.98;8.77;;;;;;;7.84;86.55;100306.84;7396905;19;20370;-71
2023/04/14 07:41:08;;;;;;;14.98;7.88;;;;;;;7.81;86.24;100302.53;7401258;19;20018;-72
2023/04/14 07:43:38;;;;;;;14.88;8.05;;;;;;;7.92;86.41;100314.53;7416495;19;20018;-71
2023/04/14 07:46:08;;;;;;;11.23;8.23;;;;;;;7.97;86.33;100313.56;7416651;19;20022;-70
2023/04/14 07:48:38;;;;;;;11.80;8.32;;;;;;;8.02;86.33;100310.00;7415802;19;20028;-72
2023/04/14 07:51:10;;;;;;;13.13;7.85;;;;;;;8.06;86.16;100311.66;7400998;19;20082;-72
2023/04/14 07:53:42;;;;;;;11.85;8.63;;;;;;;8.10;85.96;100303.75;7398673;19;20035;-72
2023/04/14 07:56:11;;;;;;;9.75;8.00;;;;;;;8.16;86.04;100308.00;7396819;19;20362;-70
2023/04/14 07:58:39;;;;;;;9.15;6.82;;;;;;;8.23;86.00;100319.22;7396921;19;20014;-70
2023/04/14 08:01:08;;;;;;;9.15;6.82;;;;;;;8.26;85.89;100306.06;7397939;19;20078;-71
2023/04/14 08:03:37;;;;;;;12.50;8.25;;;;;;;8.29;85.88;100311.22;7398537;19;20018;-71
2023/04/14 08:06:09;;;;;;;11.13;6.80;;;;;;;8.36;85.80;100312.84;7398410;19;20493;-70
2023/04/14 08:08:38;;;;;;;10.75;7.22;;;;;;;8.39;85.72;100317.16;7397372;19;20019;-70
2023/04/14 08:11:07;;;;;;;11.93;7.00;;;;;;;8.38;85.91;100312.81;7396943;19;20042;-72
2023/04/14 08:13:35;;;;;;;13.50;7.72;;;;;;;8.48;85.75;100319.63;7397577;19;20082;-73
2023/04/14 08:16:04;;;;;;;10.50;7.95;;;;;;;8.53;85.85;100314.28;7393709;19;20082;-69
2023/04/14 08:18:33;;;;;;;10.48;7.85;;;;;;;8.58;85.99;100310.69;7395052;19;20036;-69
2023/04/14 08:21:01;;;;;;;12.32;7.43;;;;;;;8.63;85.96;100303.63;7395178;19;20007;-71
2023/04/14 08:23:32;;;;;;;11.10;8.02;;;;;;;8.68;86.07;100300.03;7397401;19;20388;-72
2023/04/14 08:26:01;;;;;;;9.48;7.22;;;;;;;8.73;85.99;100303.41;7395541;19;20549;-70
2023/04/14 08:28:30;;;;;;;9.13;7.43;;;;;;;8.79;85.94;100298.91;7396326;19;20039;-71
2023/04/14 08:30:58;;;;;;;9.05;7.45;;;;;;;8.83;85.41;100298.84;7398653;19;20022;-70
2023/04/14 08:33:27;;;;;;;11.98;6.88;;;;;;;8.89;85.10;100299.56;7399225;19;20014;-70
2023/04/14 08:35:55;;;;;;;8.93;6.82;;;;;;;8.92;84.96;100299.53;7397764;19;20024;-71
2023/04/14 08:38:23;;;;;;;10.73;7.20;;;;;;;8.96;84.92;100300.31;7398128;19;20067;-71
2023/04/14 08:40:57;;;;;;;8.00;6.40;;;;;;;8.99;84.67;100302.00;7397864;19;20095;-71
2023/04/14 08:43:27;;;;;;;7.97;7.03;;;;;;;9.01;84.79;100302.81;7399215;19;20129;-71
2023/04/14 08:45:56;;;;;;;10.00;7.22;;;;;;;9.07;84.99;100307.91;7397482;19;20474;-71
2023/04/14 08:48:30;;;;;;;8.30;6.85;;;;;;;9.09;84.80;100300.91;7398057;19;20545;-72
2023/04/14 08:51:09;;;;;;;8.60;6.18;;;;;;;9.06;84.58;100288.75;7401362;19;20011;-72
2023/04/14 08:53:44;;;;;;;9.05;6.13;;;;;;;9.12;84.41;100293.84;7399011;19;20018;-71
2023/04/14 08:56:18;;;;;;;8.38;6.57;;;;;;;9.15;84.89;100300.78;7401784;19;20014;-70
2023/04/14 08:58:46;;;;;;;9.25;6.78;;;;;;;9.13;84.69;100303.41;7399984;19;20025;-71
2023/04/14 09:01:15;;;;;;;7.90;6.28;;;;;;;9.11;84.21;100304.31;7401785;19;20050;-71
2023/04/14 09:03:45;;;;;;;7.63;6.40;;;;;;;9.06;84.31;100299.22;7401168;19;20023;-71
2023/04/14 09:06:14;;;;;;;7.18;5.70;;;;;;;8.99;83.27;100309.84;7402762;19;20011;-71
2023/04/14 09:08:43;;;;;;;11.48;7.45;;;;;;;8.93;83.59;100298.63;7398908;19;20392;-71
2023/04/14 09:11:15;;;;;;;8.98;6.75;;;;;;;8.89;84.07;100293.50;7397400;19;20038;-69
2023/04/14 09:13:46;;;;;;;9.32;5.93;;;;;;;8.88;84.28;100291.78;7399586;19;20039;-68
2023/04/14 09:16:15;;;;;;;9.20;5.13;;;;;;;8.83;84.23;100293.63;7395946;19;20370;-70
2023/04/14 09:18:44;;;;;;;7.18;5.05;;;;;;;8.78;83.86;100291.97;7396923;19;20014;-69
2023/04/14 09:21:12;;;;;;;6.30;4.10;;;;;;;8.73;83.87;100287.72;7394954;19;20062;-69
2023/04/14 09:23:41;;;;;;;8.95;4.82;;;;;;;8.68;83.88;100292.19;7398827;19;20107;-68
2023/04/14 09:26:11;;;;;;;7.35;4.75;;;;;;;8.66;83.85;100293.97;7399562;19;20383;-68
2023/04/14 09:28:42;;;;;;;5.38;4.53;;;;;;;8.63;83.74;100290.56;7409146;19;20466;-69
2023/04/14 09:31:12;;;;;;;6.95;4.60;;;;;;;8.59;83.24;100293.25;7410816;19;20019;-70
2023/04/14 09:33:46;;;;;;;5.65;4.90;;;;;;;8.57;83.60;100290.66;7413600;19;20014;-69
2023/04/14 09:36:20;;;;;;;4.82;4.18;;;;;;;8.55;83.58;100295.06;7407268;19;20038;-70
2023/04/14 09:38:50;;;;;;;6.78;4.93;;;;;;;8.55;84.06;100297.69;7409452;19;20010;-69
2023/04/14 09:41:20;;;;;;;8.07;5.35;;;;;;;8.57;84.24;100297.66;7409260;19;20018;-70
2023/04/14 09:43:51;;;;;;;7.00;5.53;;;;;;;8.58;84.31;100302.84;7409049;19;20054;-70
2023/04/14 09:46:20;;;;;;;8.98;4.75;;;;;;;8.59;84.45;100307.19;7402071;19;20014;-72
2023/04/14 09:48:53;;;;;;;5.88;4.35;;;;;;;8.49;83.40;100289.94;7402143;19;20066;-69
2023/04/14 09:51:28;;;;;;;6.43;4.47;;;;;;;8.50;83.63;100293.44;7401913;19;20123;-68
2023/04/14 09:54:03;;;;;;;5.00;4.00;;;;;;;8.47;83.79;100289.16;7399283;19;20014;-70
2023/04/14 09:56:31;;;;;;;6.68;3.80;;;;;;;8.40;83.43;100301.41;7398377;19;20022;-70
2023/04/14 09:59:03;;;;;;;5.25;3.63;;;;;;;8.24;83.71;100284.31;7399012;19;20082;-69
2023/04/14 10:01:33;;;;;;;5.38;3.35;;;;;;;8.26;84.00;100299.06;7398015;19;20500;-71
2023/04/14 10:04:03;;;;;;;4.93;3.28;;;;;;;8.16;84.47;100300.16;7397937;19;20019;-71
2023/04/14 10:06:32;;;;;;;8.73;3.78;;;;;;;8.08;84.99;100296.84;7398829;19;20422;-71
2023/04/14 10:09:02;;;;;;;4.65;3.60;;;;;;;8.02;85.49;100299.56;7401748;19;20033;-72
2023/04/14 10:11:34;;;;;;;5.20;3.15;;;;;;;7.92;86.44;100298.84;7405465;19;20018;-71
2023/04/14 10:14:08;;;;;;;4.63;3.42;;;;;;;7.89;86.89;100297.16;7405672;19;20082;-69
2023/04/14 10:16:36;;;;;;;4.20;2.63;;;;;;;7.72;87.24;100279.19;7404198;19;20018;-69
2023/04/14 10:19:05;;;;;;;3.80;3.42;;;;;;;7.74;87.59;100300.91;7398892;19;20015;-68
2023/04/14 10:21:34;;;;;;;8.00;3.63;;;;;;;7.67;88.63;100296.66;7398518;19;20010;-69
2023/04/14 10:24:03;;;;;;;4.00;3.10;;;;;;;7.60;88.92;100297.66;7398591;19;20014;-67
2023/04/14 10:26:31;;;;;;;6.57;4.45;;;;;;;7.56;89.33;100294.25;7398172;19;20074;-69
2023/04/14 10:29:01;;;;;;;5.90;3.80;;;;;;;7.55;90.70;100286.44;7399916;19;20019;-68
2023/04/14 10:31:36;;;;;;;4.90;3.90;;;;;;;7.48;90.32;100303.94;7397842;19;20454;-70
2023/04/14 10:34:09;;;;;;;5.53;3.45;;;;;;;7.43;90.55;100284.88;7398294;19;20078;-69
2023/04/14 10:36:38;;;;;;;5.60;3.78;;;;;;;7.37;92.03;100292.81;7400664;19;20011;-70
2023/04/14 10:39:08;;;;;;;6.63;4.68;;;;;;;7.29;91.60;100290.31;7398346;19;20018;-68
2023/04/14 10:41:48;;;;;;;4.97;3.60;;;;;;;7.24;93.52;100295.63;7398026;19;20022;-70
2023/04/14 10:44:27;;;;;;;6.18;4.30;;;;;;;7.23;93.09;100283.47;7398881;19;20041;-69
2023/04/14 10:47:00;;;;;;;8.27;4.68;;;;;;;7.22;92.79;100286.09;7398726;19;20015;-68
2023/04/14 10:49:33;;;;;;;5.88;4.35;;;;;;;7.21;93.71;100284.38;7397436;19;20485;-68
2023/04/14 10:52:03;;;;;;;11.75;5.82;;;;;;;7.21;93.69;100287.81;7397585;19;20078;-69
2023/04/14 10:54:50;;;;;;;9.43;5.07;;;;;;;7.25;94.72;100279.06;7397133;19;20029;-69
2023/04/14 10:57:19;;;;;;;8.10;5.15;;;;;;;7.30;94.34;100277.28;7397784;19;20010;-70
2023/04/14 10:59:58;;;;;;;9.85;5.95;;;;;;;7.33;94.44;100281.56;7400807;19;20019;-70
2023/04/14 11:02:30;;;;;;;12.23;8.32;;;;;;;7.37;94.43;100279.75;7400248;19;20028;-70
2023/04/14 11:05:07;;;;;;;10.25;5.60;;;;;;;7.38;94.78;100281.47;7397447;19;20019;-68
2023/04/14 11:07:40;;;;;;;11.85;7.90;;;;;;;7.34;94.89;100276.31;7398881;19;20010;-69
2023/04/14 11:10:27;;;;;;;9.82;6.35;;;;;;;7.34;95.22;100278.06;7397433;19;20018;-69
2023/04/14 11:13:03;;;;;;;6.40;5.53;;;;;;;7.30;95.18;100266.84;7397697;19;20089;-68
2023/04/14 11:15:50;;;;;;;5.60;4.63;;;;;;;7.28;95.18;100275.53;7399348;19;20021;-67
2023/04/14 11:18:33;;;;;;;4.68;3.80;;;;;;;7.24;95.55;100269.53;7397274;19;20018;-66
2023/04/14 11:21:13;;;;;;;5.22;4.38;;;;;;;7.24;95.74;100268.66;7395650;19;20006;-70
2023/04/14 11:23:43;;;;;;;5.88;4.93;;;;;;;7.23;96.10;100270.41;7397285;19;20018;-68
2023/04/14 11:26:14;;;;;;;8.38;5.22;;;;;;;7.22;95.95;100262.63;7397059;19;20026;-68
2023/04/14 11:28:44;;;;;;;6.88;4.18;;;;;;;7.18;96.03;100264.41;7396458;19;20110;-70
2023/04/14 11:31:19;;;;;;;6.32;4.78;;;;;;;7.17;96.09;100267.91;7399539;19;20018;-68
2023/04/14 11:33:50;;;;;;;6.63;4.90;;;;;;;7.16;96.29;100263.56;7396138;19;20019;-67
2023/04/14 11:36:19;;;;;;;5.68;4.28;;;;;;;7.16;96.65;100260.94;7398282;19;20046;-68
2023/04/14 11:38:47;;;;;;;7.72;6.93;;;;;;;7.15;96.95;100259.22;7395982;19;20415;-68
2023/04/14 11:41:17;;;;;;;7.35;3.95;;;;;;;7.16;96.41;100261.78;7395754;19;20082;-67
2023/04/14 11:43:47;;;;;;;5.35;4.65;;;;;;;7.14;97.02;100257.50;7395946;19;20385;-68
2023/04/14 11:46:16;;;;;;;7.35;4.43;;;;;;;7.11;96.71;100258.41;7398317;19;20019;-69
2023/04/14 11:48:45;;;;;;;7.78;4.50;;;;;;;7.08;97.25;100244.56;7395730;19;20018;-68